sensor_id;sensor_type;location;lat;lon;timestamp;temperature;humidity
9167;DHT22;4618;48.818;9.088;2022-12-07T00:01:14;3.70;1.00
9167;DHT22;4618;48.818;9.088;2022-12-07T00:03:41;3.70;1.00
9167;DHT22;4618;48.818;9.088;2022-12-07T00:06:07;3.70;1.00
9167;DHT22;4618;48.818;9.088;2022-12-07T00:08:34;3.70;1.00
9167;DHT22;4618;48.818;9.088;2022-12-07T00:11:07;3.70;1.00
9167;DHT22;4618;48.818;9.088;2022-12-07T00:13:34;3.80;1.00
9167;DHT22;4618;48.818;9.088;2022-12-07T00:16:01;3.80;99.90
9167;DHT22;4618;48.818;9.088;2022-12-07T00:18:27;3.80;99.90
9167;DHT22;4618;48.818;9.088;2022-12-07T00:20:53;3.70;99.90
9167;DHT22;4618;48.818;9.088;2022-12-07T00:23:23;3.70;99.90
9167;DHT22;4618;48.818;9.088;2022-12-07T00:25:49;3.60;99.90
9167;DHT22;4618;48.818;9.088;2022-12-07T00:28:14;3.60;99.90
9167;DHT22;4618;48.818;9.088;2022-12-07T00:30:40;3.60;99.90
9167;DHT22;4618;48.818;9.088;2022-12-07T00:33:06;3.60;99.90
9167;DHT22;4618;48.818;9.088;2022-12-07T00:35:31;3.50;99.90
9167;DHT22;4618;48.818;9.088;2022-12-07T00:37:57;3.50;1.00
9167;DHT22;4618;48.818;9.088;2022-12-07T00:40:22;3.50;99.90
9167;DHT22;4618;48.818;9.088;2022-12-07T00:42:48;3.50;99.90
9167;DHT22;4618;48.818;9.088;2022-12-07T00:45:13;3.50;25.50
9167;DHT22;4618;48.818;9.088;2022-12-07T00:47:39;3.50;99.90
9167;DHT22;4618;48.818;9.088;2022-12-07T00:50:05;3.40;99.90
9167;DHT22;4618;48.818;9.088;2022-12-07T00:52:31;3.40;99.90
9167;DHT22;4618;48.818;9.088;2022-12-07T00:54:56;3.30;99.90
9167;DHT22;4618;48.818;9.088;2022-12-07T00:57:22;3.30;77.30
9167;DHT22;4618;48.818;9.088;2022-12-07T00:59:48;3.30;1.00
9167;DHT22;4618;48.818;9.088;2022-12-07T01:02:13;3.30;1.00
9167;DHT22;4618;48.818;9.088;2022-12-07T01:04:39;3.30;1.00
9167;DHT22;4618;48.818;9.088;2022-12-07T01:07:05;3.20;1.00
9167;DHT22;4618;48.818;9.088;2022-12-07T01:09:30;3.20;99.90
9167;DHT22;4618;48.818;9.088;2022-12-07T01:11:56;3.20;99.90
9167;DHT22;4618;48.818;9.088;2022-12-07T01:14:21;3.30;99.90
9167;DHT22;4618;48.818;9.088;2022-12-07T01:16:47;3.30;99.90
9167;DHT22;4618;48.818;9.088;2022-12-07T01:19:12;3.30;99.90
9167;DHT22;4618;48.818;9.088;2022-12-07T01:21:38;3.40;99.90
9167;DHT22;4618;48.818;9.088;2022-12-07T01:24:06;3.30;14.30
9167;DHT22;4618;48.818;9.088;2022-12-07T01:26:32;3.30;90.70
9167;DHT22;4618;48.818;9.088;2022-12-07T01:28:57;3.40;99.90
9167;DHT22;4618;48.818;9.088;2022-12-07T01:31:25;3.30;89.00
9167;DHT22;4618;48.818;9.088;2022-12-07T01:33:55;3.20;2.80
9167;DHT22;4618;48.818;9.088;2022-12-07T01:36:27;3.20;99.90
9167;DHT22;4618;48.818;9.088;2022-12-07T01:38:59;3.30;94.60
9167;DHT22;4618;48.818;9.088;2022-12-07T01:41:27;3.30;29.70
9167;DHT22;4618;48.818;9.088;2022-12-07T01:44:18;3.30;24.80
9167;DHT22;4618;48.818;9.088;2022-12-07T01:46:52;3.30;65.50
9167;DHT22;4618;48.818;9.088;2022-12-07T01:49:29;3.20;99.90
9167;DHT22;4618;48.818;9.088;2022-12-07T01:52:15;3.20;99.90
9167;DHT22;4618;48.818;9.088;2022-12-07T01:54:43;3.30;98.00
9167;DHT22;4618;48.818;9.088;2022-12-07T01:57:09;3.30;99.90
9167;DHT22;4618;48.818;9.088;2022-12-07T01:59:35;3.30;99.90
9167;DHT22;4618;48.818;9.088;2022-12-07T02:02:03;3.30;99.90
9167;DHT22;4618;48.818;9.088;2022-12-07T02:04:31;3.20;99.90
9167;DHT22;4618;48.818;9.088;2022-12-07T02:06:57;3.20;99.90
9167;DHT22;4618;48.818;9.088;2022-12-07T02:09:23;3.20;99.90
9167;DHT22;4618;48.818;9.088;2022-12-07T02:11:49;3.20;99.90
9167;DHT22;4618;48.818;9.088;2022-12-07T02:14:15;3.20;99.90
9167;DHT22;4618;48.818;9.088;2022-12-07T02:19:25;3.20;1.00
9167;DHT22;4618;48.818;9.088;2022-12-07T02:27:36;3.20;1.00
9167;DHT22;4618;48.818;9.088;2022-12-07T02:30:14;3.20;99.90
9167;DHT22;4618;48.818;9.088;2022-12-07T02:35:45;3.10;1.00
9167;DHT22;4618;48.818;9.088;2022-12-07T02:38:18;3.00;1.00
9167;DHT22;4618;48.818;9.088;2022-12-07T02:40:53;3.00;1.00
9167;DHT22;4618;48.818;9.088;2022-12-07T02:45:52;3.10;1.00
9167;DHT22;4618;48.818;9.088;2022-12-07T02:48:19;3.20;1.00
9167;DHT22;4618;48.818;9.088;2022-12-07T02:50:50;3.10;99.90
9167;DHT22;4618;48.818;9.088;2022-12-07T02:53:51;3.00;99.90
9167;DHT22;4618;48.818;9.088;2022-12-07T03:04:23;2.90;1.00
9167;DHT22;4618;48.818;9.088;2022-12-07T03:07:22;3.00;1.00
9167;DHT22;4618;48.818;9.088;2022-12-07T03:10:23;3.00;99.90
9167;DHT22;4618;48.818;9.088;2022-12-07T03:13:03;3.10;99.90
9167;DHT22;4618;48.818;9.088;2022-12-07T03:15:41;3.00;65.90
9167;DHT22;4618;48.818;9.088;2022-12-07T03:18:09;3.00;99.90
9167;DHT22;4618;48.818;9.088;2022-12-07T03:20:38;3.00;99.90
9167;DHT22;4618;48.818;9.088;2022-12-07T03:23:06;3.00;99.90
9167;DHT22;4618;48.818;9.088;2022-12-07T03:25:37;2.90;99.90
9167;DHT22;4618;48.818;9.088;2022-12-07T03:28:06;3.00;99.90
9167;DHT22;4618;48.818;9.088;2022-12-07T03:30:46;2.90;99.90
9167;DHT22;4618;48.818;9.088;2022-12-07T03:33:19;2.90;58.80
9167;DHT22;4618;48.818;9.088;2022-12-07T03:38:40;3.00;1.00
9167;DHT22;4618;48.818;9.088;2022-12-07T03:41:14;2.80;17.90
9167;DHT22;4618;48.818;9.088;2022-12-07T03:43:42;2.80;99.90
9167;DHT22;4618;48.818;9.088;2022-12-07T03:51:45;2.90;1.00
9167;DHT22;4618;48.818;9.088;2022-12-07T03:54:18;2.90;1.00
9167;DHT22;4618;48.818;9.088;2022-12-07T03:56:45;2.80;1.00
9167;DHT22;4618;48.818;9.088;2022-12-07T03:59:12;2.80;1.00
9167;DHT22;4618;48.818;9.088;2022-12-07T04:01:42;2.90;30.30
9167;DHT22;4618;48.818;9.088;2022-12-07T04:04:07;2.90;1.00
9167;DHT22;4618;48.818;9.088;2022-12-07T04:06:33;2.80;1.00
9167;DHT22;4618;48.818;9.088;2022-12-07T04:08:58;2.90;1.00
9167;DHT22;4618;48.818;9.088;2022-12-07T04:11:24;2.90;1.00
9167;DHT22;4618;48.818;9.088;2022-12-07T04:13:49;2.90;1.00
9167;DHT22;4618;48.818;9.088;2022-12-07T04:16:34;2.80;1.00
9167;DHT22;4618;48.818;9.088;2022-12-07T04:18:59;2.90;1.00
9167;DHT22;4618;48.818;9.088;2022-12-07T04:21:25;2.90;1.00
9167;DHT22;4618;48.818;9.088;2022-12-07T04:23:51;2.90;1.00
9167;DHT22;4618;48.818;9.088;2022-12-07T04:26:16;2.90;99.90
9167;DHT22;4618;48.818;9.088;2022-12-07T04:28:42;2.90;99.90
9167;DHT22;4618;48.818;9.088;2022-12-07T04:31:07;2.80;99.90
9167;DHT22;4618;48.818;9.088;2022-12-07T04:33:33;2.80;1.00
9167;DHT22;4618;48.818;9.088;2022-12-07T04:36:00;2.80;1.00
9167;DHT22;4618;48.818;9.088;2022-12-07T04:38:26;2.80;1.00
9167;DHT22;4618;48.818;9.088;2022-12-07T04:40:51;2.90;1.00
9167;DHT22;4618;48.818;9.088;2022-12-07T04:43:17;3.00;1.00
9167;DHT22;4618;48.818;9.088;2022-12-07T04:45:47;2.90;25.00
9167;DHT22;4618;48.818;9.088;2022-12-07T04:48:12;2.90;1.00
9167;DHT22;4618;48.818;9.088;2022-12-07T04:50:38;3.00;1.00
9167;DHT22;4618;48.818;9.088;2022-12-07T04:53:04;3.00;99.90
9167;DHT22;4618;48.818;9.088;2022-12-07T04:55:29;2.90;99.90
9167;DHT22;4618;48.818;9.088;2022-12-07T04:57:55;3.00;99.90
9167;DHT22;4618;48.818;9.088;2022-12-07T05:00:20;3.10;99.90
9167;DHT22;4618;48.818;9.088;2022-12-07T05:02:46;3.10;99.90
9167;DHT22;4618;48.818;9.088;2022-12-07T05:05:12;3.10;99.90
9167;DHT22;4618;48.818;9.088;2022-12-07T05:07:37;3.00;1.00
9167;DHT22;4618;48.818;9.088;2022-12-07T05:10:03;3.00;1.00
9167;DHT22;4618;48.818;9.088;2022-12-07T05:12:29;2.90;9.70
9167;DHT22;4618;48.818;9.088;2022-12-07T05:14:55;2.70;99.90
9167;DHT22;4618;48.818;9.088;2022-12-07T05:17:20;2.50;1.00
9167;DHT22;4618;48.818;9.088;2022-12-07T05:19:46;2.40;58.90
9167;DHT22;4618;48.818;9.088;2022-12-07T05:22:11;2.30;99.90
9167;DHT22;4618;48.818;9.088;2022-12-07T05:24:38;2.20;1.00
9167;DHT22;4618;48.818;9.088;2022-12-07T05:27:04;2.10;1.00
9167;DHT22;4618;48.818;9.088;2022-12-07T05:29:30;2.00;40.70
9167;DHT22;4618;48.818;9.088;2022-12-07T05:31:55;1.90;99.90
9167;DHT22;4618;48.818;9.088;2022-12-07T05:34:21;1.70;99.90
9167;DHT22;4618;48.818;9.088;2022-12-07T05:36:46;1.70;99.90
9167;DHT22;4618;48.818;9.088;2022-12-07T05:39:12;1.60;99.90
9167;DHT22;4618;48.818;9.088;2022-12-07T05:41:38;1.40;99.90
9167;DHT22;4618;48.818;9.088;2022-12-07T05:44:22;1.40;99.90
9167;DHT22;4618;48.818;9.088;2022-12-07T05:46:48;1.40;1.00
9167;DHT22;4618;48.818;9.088;2022-12-07T05:49:13;1.40;1.00
9167;DHT22;4618;48.818;9.088;2022-12-07T05:51:39;1.50;1.00
9167;DHT22;4618;48.818;9.088;2022-12-07T05:54:04;1.60;99.90
9167;DHT22;4618;48.818;9.088;2022-12-07T05:56:30;1.60;99.90
9167;DHT22;4618;48.818;9.088;2022-12-07T05:58:56;1.80;99.90
9167;DHT22;4618;48.818;9.088;2022-12-07T06:01:40;1.90;1.00
9167;DHT22;4618;48.818;9.088;2022-12-07T06:04:05;2.10;99.90
9167;DHT22;4618;48.818;9.088;2022-12-07T06:06:31;2.00;99.90
9167;DHT22;4618;48.818;9.088;2022-12-07T06:08:56;2.10;99.90
9167;DHT22;4618;48.818;9.088;2022-12-07T06:11:22;2.10;99.90
9167;DHT22;4618;48.818;9.088;2022-12-07T06:14:06;2.20;99.90
9167;DHT22;4618;48.818;9.088;2022-12-07T06:16:31;2.20;54.20
9167;DHT22;4618;48.818;9.088;2022-12-07T06:18:57;2.20;35.00
9167;DHT22;4618;48.818;9.088;2022-12-07T06:21:23;2.20;99.90
9167;DHT22;4618;48.818;9.088;2022-12-07T06:23:51;2.20;99.90
9167;DHT22;4618;48.818;9.088;2022-12-07T06:26:16;2.10;99.90
9167;DHT22;4618;48.818;9.088;2022-12-07T06:28:42;2.00;1.00
9167;DHT22;4618;48.818;9.088;2022-12-07T06:31:07;2.10;1.00
9167;DHT22;4618;48.818;9.088;2022-12-07T06:33:33;2.20;99.90
9167;DHT22;4618;48.818;9.088;2022-12-07T06:35:59;2.30;76.70
9167;DHT22;4618;48.818;9.088;2022-12-07T06:38:24;2.30;1.00
9167;DHT22;4618;48.818;9.088;2022-12-07T06:40:50;2.40;1.00
9167;DHT22;4618;48.818;9.088;2022-12-07T06:43:16;2.40;1.00
9167;DHT22;4618;48.818;9.088;2022-12-07T06:45:42;2.30;1.00
9167;DHT22;4618;48.818;9.088;2022-12-07T06:48:08;2.30;1.00
9167;DHT22;4618;48.818;9.088;2022-12-07T06:50:33;2.30;99.90
9167;DHT22;4618;48.818;9.088;2022-12-07T06:52:59;2.30;99.90
9167;DHT22;4618;48.818;9.088;2022-12-07T06:55:24;2.40;99.90
9167;DHT22;4618;48.818;9.088;2022-12-07T06:57:50;2.40;70.10
9167;DHT22;4618;48.818;9.088;2022-12-07T07:00:16;2.40;46.20
9167;DHT22;4618;48.818;9.088;2022-12-07T07:02:41;2.40;5.90
9167;DHT22;4618;48.818;9.088;2022-12-07T07:05:07;2.50;71.70
9167;DHT22;4618;48.818;9.088;2022-12-07T07:07:33;2.50;67.00
9167;DHT22;4618;48.818;9.088;2022-12-07T07:09:58;2.50;1.00
9167;DHT22;4618;48.818;9.088;2022-12-07T07:12:24;2.50;38.80
9167;DHT22;4618;48.818;9.088;2022-12-07T07:14:50;2.50;1.00
9167;DHT22;4618;48.818;9.088;2022-12-07T07:17:15;2.50;2.40
9167;DHT22;4618;48.818;9.088;2022-12-07T07:19:41;2.50;1.00
9167;DHT22;4618;48.818;9.088;2022-12-07T07:22:06;2.50;1.00
9167;DHT22;4618;48.818;9.088;2022-12-07T07:24:32;2.50;1.00
9167;DHT22;4618;48.818;9.088;2022-12-07T07:26:58;2.50;1.00
9167;DHT22;4618;48.818;9.088;2022-12-07T07:29:23;2.60;1.00
9167;DHT22;4618;48.818;9.088;2022-12-07T07:31:49;2.70;1.00
9167;DHT22;4618;48.818;9.088;2022-12-07T07:34:15;2.80;1.00
9167;DHT22;4618;48.818;9.088;2022-12-07T07:36:40;2.70;1.00
9167;DHT22;4618;48.818;9.088;2022-12-07T07:39:06;2.70;1.00
9167;DHT22;4618;48.818;9.088;2022-12-07T07:41:32;2.80;1.00
9167;DHT22;4618;48.818;9.088;2022-12-07T07:43:57;2.80;1.00
9167;DHT22;4618;48.818;9.088;2022-12-07T07:46:23;2.80;99.90
9167;DHT22;4618;48.818;9.088;2022-12-07T07:48:48;2.70;99.90
9167;DHT22;4618;48.818;9.088;2022-12-07T07:51:14;2.70;99.90
9167;DHT22;4618;48.818;9.088;2022-12-07T07:53:40;2.80;99.90
9167;DHT22;4618;48.818;9.088;2022-12-07T07:56:05;2.80;99.90
9167;DHT22;4618;48.818;9.088;2022-12-07T07:58:31;2.80;99.90
9167;DHT22;4618;48.818;9.088;2022-12-07T08:00:57;2.90;99.90
9167;DHT22;4618;48.818;9.088;2022-12-07T08:03:22;2.90;99.90
9167;DHT22;4618;48.818;9.088;2022-12-07T08:05:48;3.10;98.40
9167;DHT22;4618;48.818;9.088;2022-12-07T08:08:14;3.10;99.90
9167;DHT22;4618;48.818;9.088;2022-12-07T08:10:39;3.00;99.90
9167;DHT22;4618;48.818;9.088;2022-12-07T08:13:05;3.10;1.00
9167;DHT22;4618;48.818;9.088;2022-12-07T08:15:38;3.20;43.30
9167;DHT22;4618;48.818;9.088;2022-12-07T08:18:04;3.30;17.70
9167;DHT22;4618;48.818;9.088;2022-12-07T08:20:30;3.30;1.00
9167;DHT22;4618;48.818;9.088;2022-12-07T08:22:57;3.30;1.00
9167;DHT22;4618;48.818;9.088;2022-12-07T08:25:23;3.30;1.00
9167;DHT22;4618;48.818;9.088;2022-12-07T08:27:49;3.40;1.00
9167;DHT22;4618;48.818;9.088;2022-12-07T08:30:16;3.50;1.00
9167;DHT22;4618;48.818;9.088;2022-12-07T08:32:41;3.40;1.00
9167;DHT22;4618;48.818;9.088;2022-12-07T08:35:09;3.50;1.00
9167;DHT22;4618;48.818;9.088;2022-12-07T08:37:34;3.60;1.00
9167;DHT22;4618;48.818;9.088;2022-12-07T08:40:00;3.70;99.90
9167;DHT22;4618;48.818;9.088;2022-12-07T08:42:26;3.80;99.90
9167;DHT22;4618;48.818;9.088;2022-12-07T08:44:56;3.80;99.90
9167;DHT22;4618;48.818;9.088;2022-12-07T08:47:23;3.90;99.90
9167;DHT22;4618;48.818;9.088;2022-12-07T08:49:49;4.00;99.90
9167;DHT22;4618;48.818;9.088;2022-12-07T08:52:16;4.00;99.90
9167;DHT22;4618;48.818;9.088;2022-12-07T08:54:42;4.10;99.90
9167;DHT22;4618;48.818;9.088;2022-12-07T08:57:09;4.20;99.90
9167;DHT22;4618;48.818;9.088;2022-12-07T08:59:36;4.20;99.90
9167;DHT22;4618;48.818;9.088;2022-12-07T09:02:03;4.20;99.90
9167;DHT22;4618;48.818;9.088;2022-12-07T09:04:29;4.20;99.90
9167;DHT22;4618;48.818;9.088;2022-12-07T09:06:55;4.30;99.90
9167;DHT22;4618;48.818;9.088;2022-12-07T09:09:21;4.30;99.90
9167;DHT22;4618;48.818;9.088;2022-12-07T09:11:47;4.30;99.90
9167;DHT22;4618;48.818;9.088;2022-12-07T09:14:13;4.30;99.90
9167;DHT22;4618;48.818;9.088;2022-12-07T09:16:39;4.30;99.90
9167;DHT22;4618;48.818;9.088;2022-12-07T09:19:05;4.30;1.00
9167;DHT22;4618;48.818;9.088;2022-12-07T09:21:30;4.40;62.70
9167;DHT22;4618;48.818;9.088;2022-12-07T09:23:56;4.50;99.90
9167;DHT22;4618;48.818;9.088;2022-12-07T09:26:22;4.50;99.90
9167;DHT22;4618;48.818;9.088;2022-12-07T09:28:47;4.50;99.90
9167;DHT22;4618;48.818;9.088;2022-12-07T09:31:13;4.60;52.00
9167;DHT22;4618;48.818;9.088;2022-12-07T09:33:39;4.60;1.00
9167;DHT22;4618;48.818;9.088;2022-12-07T09:36:04;4.70;1.00
9167;DHT22;4618;48.818;9.088;2022-12-07T09:38:30;4.80;1.00
9167;DHT22;4618;48.818;9.088;2022-12-07T09:40:58;4.80;1.00
9167;DHT22;4618;48.818;9.088;2022-12-07T09:43:28;4.90;12.90
9167;DHT22;4618;48.818;9.088;2022-12-07T09:45:55;4.90;1.00
9167;DHT22;4618;48.818;9.088;2022-12-07T09:50:55;4.70;1.00
9167;DHT22;4618;48.818;9.088;2022-12-07T09:53:32;4.70;99.90
9167;DHT22;4618;48.818;9.088;2022-12-07T09:55:59;4.80;99.90
9167;DHT22;4618;48.818;9.088;2022-12-07T09:58:26;4.80;99.90
9167;DHT22;4618;48.818;9.088;2022-12-07T10:01:05;4.90;99.90
9167;DHT22;4618;48.818;9.088;2022-12-07T10:03:37;5.00;99.90
9167;DHT22;4618;48.818;9.088;2022-12-07T10:06:05;4.90;99.90
9167;DHT22;4618;48.818;9.088;2022-12-07T10:08:31;5.10;99.90
9167;DHT22;4618;48.818;9.088;2022-12-07T10:10:57;5.30;99.90
9167;DHT22;4618;48.818;9.088;2022-12-07T10:13:38;5.50;4.30
9167;DHT22;4618;48.818;9.088;2022-12-07T10:16:04;5.60;17.70
9167;DHT22;4618;48.818;9.088;2022-12-07T10:18:38;5.70;1.00
9167;DHT22;4618;48.818;9.088;2022-12-07T10:23:37;5.80;1.00
9167;DHT22;4618;48.818;9.088;2022-12-07T10:28:46;6.00;99.90
9167;DHT22;4618;48.818;9.088;2022-12-07T10:31:17;5.90;95.20
9167;DHT22;4618;48.818;9.088;2022-12-07T10:33:58;5.70;99.90
9167;DHT22;4618;48.818;9.088;2022-12-07T10:39:19;5.70;1.00
9167;DHT22;4618;48.818;9.088;2022-12-07T10:41:59;5.60;1.00
9167;DHT22;4618;48.818;9.088;2022-12-07T10:44:28;5.60;1.00
9167;DHT22;4618;48.818;9.088;2022-12-07T10:49:38;5.50;62.20
9167;DHT22;4618;48.818;9.088;2022-12-07T10:52:36;5.40;99.90
9167;DHT22;4618;48.818;9.088;2022-12-07T10:55:31;5.20;1.00
9167;DHT22;4618;48.818;9.088;2022-12-07T11:00:30;5.20;99.90
9167;DHT22;4618;48.818;9.088;2022-12-07T11:03:23;5.20;99.90
9167;DHT22;4618;48.818;9.088;2022-12-07T11:09:20;5.30;1.00
9167;DHT22;4618;48.818;9.088;2022-12-07T11:14:58;5.20;1.00
9167;DHT22;4618;48.818;9.088;2022-12-07T11:20:29;5.00;99.90
9167;DHT22;4618;48.818;9.088;2022-12-07T11:26:25;5.00;1.00
9167;DHT22;4618;48.818;9.088;2022-12-07T11:29:24;5.00;99.90
9167;DHT22;4618;48.818;9.088;2022-12-07T11:37:27;4.80;99.90
9167;DHT22;4618;48.818;9.088;2022-12-07T11:40:02;4.70;99.90
9167;DHT22;4618;48.818;9.088;2022-12-07T11:42:42;4.70;99.90
9167;DHT22;4618;48.818;9.088;2022-12-07T11:45:17;4.60;99.90
9167;DHT22;4618;48.818;9.088;2022-12-07T11:47:55;4.60;99.90
9167;DHT22;4618;48.818;9.088;2022-12-07T11:53:03;4.70;99.90
9167;DHT22;4618;48.818;9.088;2022-12-07T11:55:52;4.70;99.90
9167;DHT22;4618;48.818;9.088;2022-12-07T12:03:54;4.50;99.90
9167;DHT22;4618;48.818;9.088;2022-12-07T12:06:22;4.60;99.90
9167;DHT22;4618;48.818;9.088;2022-12-07T12:08:59;4.60;99.90
9167;DHT22;4618;48.818;9.088;2022-12-07T12:14:49;4.60;99.90
9167;DHT22;4618;48.818;9.088;2022-12-07T12:22:23;4.40;1.00
9167;DHT22;4618;48.818;9.088;2022-12-07T12:24:53;4.40;99.90
9167;DHT22;4618;48.818;9.088;2022-12-07T12:27:29;4.50;99.90
9167;DHT22;4618;48.818;9.088;2022-12-07T12:29:59;4.40;99.90
9167;DHT22;4618;48.818;9.088;2022-12-07T12:32:39;4.40;76.20
9167;DHT22;4618;48.818;9.088;2022-12-07T12:35:34;4.60;99.90
9167;DHT22;4618;48.818;9.088;2022-12-07T12:40:50;4.70;1.00
9167;DHT22;4618;48.818;9.088;2022-12-07T12:49:14;4.70;1.00
9167;DHT22;4618;48.818;9.088;2022-12-07T12:51:43;4.60;1.00
9167;DHT22;4618;48.818;9.088;2022-12-07T12:54:30;4.60;1.00
9167;DHT22;4618;48.818;9.088;2022-12-07T12:57:09;4.60;1.00
9167;DHT22;4618;48.818;9.088;2022-12-07T13:02:32;4.70;99.90
9167;DHT22;4618;48.818;9.088;2022-12-07T13:04:59;4.80;99.90
9167;DHT22;4618;48.818;9.088;2022-12-07T13:15:49;4.70;99.90
9167;DHT22;4618;48.818;9.088;2022-12-07T13:21:00;4.70;1.00
9167;DHT22;4618;48.818;9.088;2022-12-07T13:31:39;4.60;1.00
9167;DHT22;4618;48.818;9.088;2022-12-07T13:34:32;4.60;1.00
9167;DHT22;4618;48.818;9.088;2022-12-07T13:39:45;4.60;1.00
9167;DHT22;4618;48.818;9.088;2022-12-07T13:42:24;4.70;1.00
9167;DHT22;4618;48.818;9.088;2022-12-07T13:44:51;4.80;1.00
9167;DHT22;4618;48.818;9.088;2022-12-07T13:47:36;4.80;1.00
9167;DHT22;4618;48.818;9.088;2022-12-07T13:50:28;4.80;1.00
9167;DHT22;4618;48.818;9.088;2022-12-07T13:53:01;4.80;1.00
9167;DHT22;4618;48.818;9.088;2022-12-07T13:55:28;4.70;1.00
9167;DHT22;4618;48.818;9.088;2022-12-07T13:57:55;4.70;1.00
9167;DHT22;4618;48.818;9.088;2022-12-07T14:00:23;4.80;1.00
9167;DHT22;4618;48.818;9.088;2022-12-07T14:03:01;4.80;1.00
9167;DHT22;4618;48.818;9.088;2022-12-07T14:05:32;4.90;99.90
9167;DHT22;4618;48.818;9.088;2022-12-07T14:16:18;5.70;99.90
9167;DHT22;4618;48.818;9.088;2022-12-07T14:18:46;5.70;1.00
9167;DHT22;4618;48.818;9.088;2022-12-07T14:23:38;5.50;1.00
9167;DHT22;4618;48.818;9.088;2022-12-07T14:26:20;5.60;1.00
9167;DHT22;4618;48.818;9.088;2022-12-07T14:28:47;5.50;46.00
9167;DHT22;4618;48.818;9.088;2022-12-07T14:31:14;5.50;99.90
9167;DHT22;4618;48.818;9.088;2022-12-07T14:33:41;5.50;99.90
9167;DHT22;4618;48.818;9.088;2022-12-07T14:36:11;5.30;99.90
9167;DHT22;4618;48.818;9.088;2022-12-07T14:38:37;5.10;99.90
9167;DHT22;4618;48.818;9.088;2022-12-07T14:41:04;4.80;1.00
9167;DHT22;4618;48.818;9.088;2022-12-07T14:43:50;4.60;1.00
9167;DHT22;4618;48.818;9.088;2022-12-07T14:46:16;4.40;1.00
9167;DHT22;4618;48.818;9.088;2022-12-07T14:48:41;4.40;99.90
9167;DHT22;4618;48.818;9.088;2022-12-07T14:51:09;4.40;99.90
9167;DHT22;4618;48.818;9.088;2022-12-07T14:53:40;4.30;99.90
9167;DHT22;4618;48.818;9.088;2022-12-07T14:56:07;4.30;99.90
9167;DHT22;4618;48.818;9.088;2022-12-07T14:58:33;4.20;99.90
9167;DHT22;4618;48.818;9.088;2022-12-07T15:00:59;4.20;1.00
9167;DHT22;4618;48.818;9.088;2022-12-07T15:03:24;4.20;99.90
9167;DHT22;4618;48.818;9.088;2022-12-07T15:05:50;4.20;99.90
9167;DHT22;4618;48.818;9.088;2022-12-07T15:08:15;4.20;99.90
9167;DHT22;4618;48.818;9.088;2022-12-07T15:10:44;4.10;99.90
9167;DHT22;4618;48.818;9.088;2022-12-07T15:13:09;4.20;99.90
9167;DHT22;4618;48.818;9.088;2022-12-07T15:15:54;4.10;99.90
9167;DHT22;4618;48.818;9.088;2022-12-07T15:18:22;4.10;99.90
9167;DHT22;4618;48.818;9.088;2022-12-07T15:20:48;4.00;99.90
9167;DHT22;4618;48.818;9.088;2022-12-07T15:23:14;4.00;99.90
9167;DHT22;4618;48.818;9.088;2022-12-07T15:25:44;3.90;99.90
9167;DHT22;4618;48.818;9.088;2022-12-07T15:28:09;3.80;1.00
9167;DHT22;4618;48.818;9.088;2022-12-07T15:30:37;3.70;1.00
9167;DHT22;4618;48.818;9.088;2022-12-07T15:33:03;3.70;1.00
9167;DHT22;4618;48.818;9.088;2022-12-07T15:35:29;3.60;1.00
9167;DHT22;4618;48.818;9.088;2022-12-07T15:37:54;3.60;1.00
9167;DHT22;4618;48.818;9.088;2022-12-07T15:40:20;3.60;26.60
9167;DHT22;4618;48.818;9.088;2022-12-07T15:42:45;3.50;99.90
9167;DHT22;4618;48.818;9.088;2022-12-07T15:45:11;3.50;99.90
9167;DHT22;4618;48.818;9.088;2022-12-07T15:47:41;3.40;99.90
9167;DHT22;4618;48.818;9.088;2022-12-07T15:50:09;3.40;99.90
9167;DHT22;4618;48.818;9.088;2022-12-07T15:52:35;3.40;99.90
9167;DHT22;4618;48.818;9.088;2022-12-07T15:55:02;3.40;99.90
9167;DHT22;4618;48.818;9.088;2022-12-07T15:57:32;3.30;99.90
9167;DHT22;4618;48.818;9.088;2022-12-07T15:59:58;3.20;99.90
9167;DHT22;4618;48.818;9.088;2022-12-07T16:02:24;3.20;99.90
9167;DHT22;4618;48.818;9.088;2022-12-07T16:04:51;3.10;1.00
9167;DHT22;4618;48.818;9.088;2022-12-07T16:07:17;3.10;1.00
9167;DHT22;4618;48.818;9.088;2022-12-07T16:09:44;3.10;1.00
9167;DHT22;4618;48.818;9.088;2022-12-07T16:12:11;3.10;1.00
9167;DHT22;4618;48.818;9.088;2022-12-07T16:14:38;3.10;1.00
9167;DHT22;4618;48.818;9.088;2022-12-07T16:17:04;3.10;1.00
9167;DHT22;4618;48.818;9.088;2022-12-07T16:19:31;3.10;1.00
9167;DHT22;4618;48.818;9.088;2022-12-07T16:21:56;3.10;99.90
9167;DHT22;4618;48.818;9.088;2022-12-07T16:24:22;3.10;97.30
9167;DHT22;4618;48.818;9.088;2022-12-07T16:26:48;3.00;99.90
9167;DHT22;4618;48.818;9.088;2022-12-07T16:29:14;2.90;99.90
9167;DHT22;4618;48.818;9.088;2022-12-07T16:31:40;2.90;99.90
9167;DHT22;4618;48.818;9.088;2022-12-07T16:34:07;2.80;99.90
9167;DHT22;4618;48.818;9.088;2022-12-07T16:36:33;2.80;99.90
9167;DHT22;4618;48.818;9.088;2022-12-07T16:38:59;2.90;99.90
9167;DHT22;4618;48.818;9.088;2022-12-07T16:41:25;2.90;99.90
9167;DHT22;4618;48.818;9.088;2022-12-07T16:43:51;2.90;99.90
9167;DHT22;4618;48.818;9.088;2022-12-07T16:46:16;2.90;99.90
9167;DHT22;4618;48.818;9.088;2022-12-07T16:48:42;2.90;99.90
9167;DHT22;4618;48.818;9.088;2022-12-07T16:51:11;2.80;99.90
9167;DHT22;4618;48.818;9.088;2022-12-07T16:53:38;2.70;1.00
9167;DHT22;4618;48.818;9.088;2022-12-07T16:56:05;2.70;99.90
9167;DHT22;4618;48.818;9.088;2022-12-07T16:58:34;2.70;24.30
9167;DHT22;4618;48.818;9.088;2022-12-07T17:01:11;2.80;99.90
9167;DHT22;4618;48.818;9.088;2022-12-07T17:03:37;2.90;20.70
9167;DHT22;4618;48.818;9.088;2022-12-07T17:06:03;2.80;99.90
9167;DHT22;4618;48.818;9.088;2022-12-07T17:08:29;2.80;99.90
9167;DHT22;4618;48.818;9.088;2022-12-07T17:10:54;2.80;99.90
9167;DHT22;4618;48.818;9.088;2022-12-07T17:13:20;2.80;99.90
9167;DHT22;4618;48.818;9.088;2022-12-07T17:16:05;2.70;99.90
9167;DHT22;4618;48.818;9.088;2022-12-07T17:18:33;2.70;1.00
9167;DHT22;4618;48.818;9.088;2022-12-07T17:21:04;2.70;1.00
9167;DHT22;4618;48.818;9.088;2022-12-07T17:23:30;2.70;1.00
9167;DHT22;4618;48.818;9.088;2022-12-07T17:26:01;2.60;1.00
9167;DHT22;4618;48.818;9.088;2022-12-07T17:28:28;2.60;1.00
9167;DHT22;4618;48.818;9.088;2022-12-07T17:30:54;2.60;1.00
9167;DHT22;4618;48.818;9.088;2022-12-07T17:33:19;2.50;1.00
9167;DHT22;4618;48.818;9.088;2022-12-07T17:35:46;2.50;99.90
9167;DHT22;4618;48.818;9.088;2022-12-07T17:38:13;2.50;99.90
9167;DHT22;4618;48.818;9.088;2022-12-07T17:40:42;2.50;1.00
9167;DHT22;4618;48.818;9.088;2022-12-07T17:43:08;2.60;1.00
9167;DHT22;4618;48.818;9.088;2022-12-07T17:45:35;2.60;1.00
9167;DHT22;4618;48.818;9.088;2022-12-07T17:48:00;2.70;1.00
9167;DHT22;4618;48.818;9.088;2022-12-07T17:50:26;2.70;1.00
9167;DHT22;4618;48.818;9.088;2022-12-07T17:53:11;2.70;1.00
9167;DHT22;4618;48.818;9.088;2022-12-07T17:55:37;2.70;1.00
9167;DHT22;4618;48.818;9.088;2022-12-07T17:58:05;2.80;1.00
9167;DHT22;4618;48.818;9.088;2022-12-07T18:00:30;2.80;1.00
9167;DHT22;4618;48.818;9.088;2022-12-07T18:03:05;2.90;1.00
9167;DHT22;4618;48.818;9.088;2022-12-07T18:05:35;2.90;1.00
9167;DHT22;4618;48.818;9.088;2022-12-07T18:08:00;3.00;1.00
9167;DHT22;4618;48.818;9.088;2022-12-07T18:10:26;2.90;1.00
9167;DHT22;4618;48.818;9.088;2022-12-07T18:12:52;2.90;1.00
9167;DHT22;4618;48.818;9.088;2022-12-07T18:15:37;2.90;1.00
9167;DHT22;4618;48.818;9.088;2022-12-07T18:18:03;3.00;1.00
9167;DHT22;4618;48.818;9.088;2022-12-07T18:20:29;3.00;1.00
9167;DHT22;4618;48.818;9.088;2022-12-07T18:22:55;3.00;1.00
9167;DHT22;4618;48.818;9.088;2022-12-07T18:25:20;3.00;1.00
9167;DHT22;4618;48.818;9.088;2022-12-07T18:27:46;3.00;1.00
9167;DHT22;4618;48.818;9.088;2022-12-07T18:30:12;2.90;1.00
9167;DHT22;4618;48.818;9.088;2022-12-07T18:32:37;2.90;1.00
9167;DHT22;4618;48.818;9.088;2022-12-07T18:35:03;3.00;1.00
9167;DHT22;4618;48.818;9.088;2022-12-07T18:37:29;3.00;1.00
9167;DHT22;4618;48.818;9.088;2022-12-07T18:39:56;3.00;99.90